Time;durP1;ratioP1;P1;durP2;ratioP2;P2;SDS_P1;SDS_P2;PMS_P1;PMS_P2;Temp;Humidity;BMP_temperature;BMP_pressure;BME280_temperature;BME280_humidity;BME280_pressure;Samples;Min_cycle;Max_cycle;Signal;HPM_P1;HPM_P2
2023/07/04 00:01:04;;;;;;;4.85;3.20;;;;;;;;;;6241476;28;20053;-77
2023/07/04 00:04:07;;;;;;;5.47;3.40;;;;;;;;;;6241704;28;20050;-76
2023/07/04 00:07:11;;;;;;;5.00;3.67;;;;;;;;;;6242537;28;20060;-77
2023/07/04 00:10:13;;;;;;;5.03;3.50;;;;;;;;;;6246862;28;20129;-76
2023/07/04 00:13:16;;;;;;;5.55;3.72;;;;;;;;;;6246360;28;20095;-76
2023/07/04 00:16:17;;;;;;;6.05;4.38;;;;;;;;;;6238938;28;20057;-76
2023/07/04 00:19:19;;;;;;;6.38;4.03;;;;;;;;;;6243884;28;20116;-77
2023/07/04 00:22:21;;;;;;;5.53;4.18;;;;;;;;;;6242280;28;20096;-77
2023/07/04 00:25:23;;;;;;;7.47;4.68;;;;;;;;;;6242999;28;20053;-76
2023/07/04 00:28:30;;;;;;;6.32;4.90;;;;;;;;;;6242731;28;20049;-76
2023/07/04 00:31:32;;;;;;;7.60;5.28;;;;;;;;;;6243625;28;20050;-75
2023/07/04 00:34:33;;;;;;;6.70;5.38;;;;;;;;;;6245144;28;20392;-78
2023/07/04 00:37:36;;;;;;;10.10;5.63;;;;;;;;;;6239905;28;20148;-76
2023/07/04 00:40:38;;;;;;;9.20;5.93;;;;;;;;;;6244233;28;20280;-76
2023/07/04 00:43:56;;;;;;;7.97;6.07;;;;;;;;;;6240270;28;20049;-75
2023/07/04 00:47:06;;;;;;;8.40;6.18;;;;;;;;;;6244587;28;20064;-76
2023/07/04 00:50:09;;;;;;;8.82;6.93;;;;;;;;;;6241257;28;20069;-76
2023/07/04 00:53:11;;;;;;;9.87;7.67;;;;;;;;;;6243242;28;20333;-76
2023/07/04 00:56:13;;;;;;;10.57;7.25;;;;;;;;;;6243791;28;20054;-76
2023/07/04 00:59:15;;;;;;;10.38;7.88;;;;;;;;;;6243375;28;20103;-75
2023/07/04 01:02:19;;;;;;;11.52;8.43;;;;;;;;;;6239189;28;20057;-76
2023/07/04 01:05:24;;;;;;;12.23;9.32;;;;;;;;;;6241941;28;20053;-76
2023/07/04 01:08:28;;;;;;;14.32;9.00;;;;;;;;;;6240968;28;20057;-77
2023/07/04 01:11:30;;;;;;;12.68;9.48;;;;;;;;;;6242354;28;20064;-76
2023/07/04 01:14:33;;;;;;;13.63;9.52;;;;;;;;;;6238235;28;20069;-76
2023/07/04 01:17:35;;;;;;;14.13;9.80;;;;;;;;;;6240252;28;20046;-76
2023/07/04 01:20:36;;;;;;;14.15;9.48;;;;;;;;;;6244938;28;20060;-76
2023/07/04 01:23:42;;;;;;;14.88;11.02;;;;;;;;;;6241814;28;20057;-77
2023/07/04 01:26:47;;;;;;;14.73;10.45;;;;;;;;;;6242068;28;20041;-76
2023/07/04 01:29:48;;;;;;;17.10;11.75;;;;;;;;;;6242261;28;20057;-76
2023/07/04 01:32:52;;;;;;;16.10;11.82;;;;;;;;;;6240020;28;20045;-76
2023/07/04 01:35:54;;;;;;;16.50;11.88;;;;;;;;;;6240397;28;20054;-76
2023/07/04 01:38:56;;;;;;;16.73;12.43;;;;;;;;;;6243961;28;20095;-77
2023/07/04 01:42:04;;;;;;;16.98;11.40;;;;;;;;;;6243549;28;20256;-76
2023/07/04 01:45:07;;;;;;;16.35;12.43;;;;;;;;;;6243097;28;20049;-76
2023/07/04 01:48:08;;;;;;;16.60;13.40;;;;;;;;;;6243289;28;20054;-76
2023/07/04 01:51:09;;;;;;;17.77;14.30;;;;;;;;;;6239312;28;20073;-76
2023/07/04 01:54:16;;;;;;;17.45;13.75;;;;;;;;;;6241100;28;20780;-75
2023/07/04 01:57:19;;;;;;;18.00;14.55;;;;;;;;;;6243301;28;20057;-76
2023/07/04 02:00:22;;;;;;;19.50;14.98;;;;;;;;;;6239837;28;20061;-76
2023/07/04 02:03:23;;;;;;;19.30;14.63;;;;;;;;;;6240893;28;20041;-75
2023/07/04 02:06:25;;;;;;;20.00;15.10;;;;;;;;;;6242811;28;20057;-75
2023/07/04 02:09:26;;;;;;;16.25;12.80;;;;;;;;;;6242886;28;20051;-76
2023/07/04 02:12:29;;;;;;;15.38;11.07;;;;;;;;;;6244617;28;20353;-77
2023/07/04 02:15:31;;;;;;;12.68;10.23;;;;;;;;;;6241503;28;20046;-75
2023/07/04 02:18:32;;;;;;;12.15;9.27;;;;;;;;;;6243516;28;20045;-76
2023/07/04 02:21:34;;;;;;;9.70;8.07;;;;;;;;;;6238613;28;20531;-76
2023/07/04 02:24:36;;;;;;;7.70;6.15;;;;;;;;;;6243623;28;20045;-77
2023/07/04 02:27:40;;;;;;;7.70;5.55;;;;;;;;;;6242952;28;20045;-76
2023/07/04 02:30:43;;;;;;;7.82;5.95;;;;;;;;;;6248061;28;20076;-76
2023/07/04 02:33:44;;;;;;;7.90;5.97;;;;;;;;;;6245784;28;20057;-76
2023/07/04 02:36:46;;;;;;;6.72;5.20;;;;;;;;;;6245066;28;20049;-76
2023/07/04 02:39:49;;;;;;;8.88;5.38;;;;;;;;;;6243581;28;20049;-77
2023/07/04 02:42:52;;;;;;;7.00;5.80;;;;;;;;;;6243029;28;20053;-75
2023/07/04 02:45:53;;;;;;;7.32;5.30;;;;;;;;;;6246154;28;20054;-76
2023/07/04 02:48:55;;;;;;;6.88;5.47;;;;;;;;;;6246400;28;20080;-76
2023/07/04 02:51:56;;;;;;;7.25;5.72;;;;;;;;;;6244466;28;20069;-77
2023/07/04 02:54:58;;;;;;;7.43;5.60;;;;;;;;;;6242319;28;20257;-76
2023/07/04 02:58:01;;;;;;;8.15;6.55;;;;;;;;;;6243991;28;20064;-76
2023/07/04 03:01:04;;;;;;;6.93;5.18;;;;;;;;;;6247328;28;20122;-75
2023/07/04 03:04:05;;;;;;;9.50;6.45;;;;;;;;;;6242202;28;20348;-76
2023/07/04 03:07:07;;;;;;;9.05;6.85;;;;;;;;;;6245907;28;20061;-76
2023/07/04 03:10:09;;;;;;;8.60;6.32;;;;;;;;;;6247068;28;20075;-75
2023/07/04 03:13:12;;;;;;;7.95;6.22;;;;;;;;;;6243838;28;20054;-76
2023/07/04 03:16:13;;;;;;;9.27;6.50;;;;;;;;;;6244518;28;20338;-76
2023/07/04 03:19:15;;;;;;;9.68;6.75;;;;;;;;;;6244811;28;20346;-76
2023/07/04 03:22:16;;;;;;;10.73;7.72;;;;;;;;;;6242689;28;20053;-76
2023/07/04 03:25:18;;;;;;;12.18;7.55;;;;;;;;;;6245356;28;20061;-77
2023/07/04 03:28:20;;;;;;;11.27;8.35;;;;;;;;;;6244452;28;20065;-76
2023/07/04 03:31:22;;;;;;;10.75;7.72;;;;;;;;;;6242890;28;20508;-76
2023/07/04 03:34:23;;;;;;;11.57;8.07;;;;;;;;;;6243666;28;20113;-76
2023/07/04 03:37:25;;;;;;;9.65;7.28;;;;;;;;;;6246626;28;20056;-76
2023/07/04 03:40:26;;;;;;;11.60;7.40;;;;;;;;;;6243098;28;20048;-76
2023/07/04 03:43:29;;;;;;;10.43;8.30;;;;;;;;;;6244119;28;20065;-76
2023/07/04 03:46:31;;;;;;;11.85;9.48;;;;;;;;;;6246484;28;20140;-76
2023/07/04 03:49:32;;;;;;;11.48;8.43;;;;;;;;;;6247354;28;20053;-76
2023/07/04 03:52:33;;;;;;;11.73;8.35;;;;;;;;;;6245403;28;20049;-76
2023/07/04 03:55:35;;;;;;;10.70;9.07;;;;;;;;;;6247960;28;20290;-76
2023/07/04 03:58:38;;;;;;;13.25;8.60;;;;;;;;;;6244430;28;20046;-76
2023/07/04 04:01:39;;;;;;;10.45;8.75;;;;;;;;;;6242766;28;20057;-76
2023/07/04 04:04:41;;;;;;;13.10;9.75;;;;;;;;;;6247721;28;20061;-76
2023/07/04 04:07:42;;;;;;;11.85;9.82;;;;;;;;;;6244764;28;20053;-76
2023/07/04 04:10:44;;;;;;;12.52;9.30;;;;;;;;;;6245320;28;20102;-76
2023/07/04 04:13:47;;;;;;;10.70;9.55;;;;;;;;;;6247528;28;20053;-76
2023/07/04 04:16:49;;;;;;;15.88;10.18;;;;;;;;;;6246058;28;20113;-77
2023/07/04 04:19:50;;;;;;;12.20;10.13;;;;;;;;;;6243115;28;20057;-76
2023/07/04 04:22:52;;;;;;;13.50;10.30;;;;;;;;;;6243172;28;20049;-76
2023/07/04 04:25:53;;;;;;;11.80;9.20;;;;;;;;;;6242158;28;20229;-76
2023/07/04 04:28:58;;;;;;;11.05;8.98;;;;;;;;;;6243440;28;20166;-77
2023/07/04 04:32:00;;;;;;;12.45;9.70;;;;;;;;;;6243618;28;20103;-77
2023/07/04 04:35:01;;;;;;;11.23;8.88;;;;;;;;;;6243380;28;20087;-75
2023/07/04 04:38:03;;;;;;;11.63;9.77;;;;;;;;;;6239171;28;20076;-76
2023/07/04 04:41:05;;;;;;;11.80;9.40;;;;;;;;;;6243134;28;20064;-75
2023/07/04 04:44:08;;;;;;;10.82;9.02;;;;;;;;;;6244680;28;20098;-75
2023/07/04 04:47:11;;;;;;;12.00;8.13;;;;;;;;;;6238751;28;20045;-76
2023/07/04 04:50:12;;;;;;;11.75;9.45;;;;;;;;;;6241878;28;20085;-77
2023/07/04 04:53:14;;;;;;;12.05;9.88;;;;;;;;;;6240585;28;20056;-76
2023/07/04 04:56:16;;;;;;;13.73;9.30;;;;;;;;;;6238767;28;20046;-77
2023/07/04 04:59:19;;;;;;;12.43;9.35;;;;;;;;;;6242745;28;20123;-76
2023/07/04 05:02:20;;;;;;;12.30;8.98;;;;;;;;;;6241689;28;20052;-77
2023/07/04 05:05:22;;;;;;;13.77;9.02;;;;;;;;;;6239037;28;20046;-76
2023/07/04 05:08:23;;;;;;;10.25;8.55;;;;;;;;;;6242306;28;20053;-77
2023/07/04 05:11:25;;;;;;;7.35;5.82;;;;;;;;;;6244000;28;20237;-77
2023/07/04 05:14:28;;;;;;;5.30;3.92;;;;;;;;;;6237771;28;20053;-75
2023/07/04 05:17:29;;;;;;;5.45;3.78;;;;;;;;;;6244832;28;20045;-76
2023/07/04 05:20:31;;;;;;;6.40;3.30;;;;;;;;;;6242859;28;21091;-76
2023/07/04 05:23:34;;;;;;;6.38;3.72;;;;;;;;;;6244213;28;20876;-76
2023/07/04 05:26:36;;;;;;;6.47;3.70;;;;;;;;;;6242380;28;20321;-75
2023/07/04 05:29:39;;;;;;;7.18;4.43;;;;;;;;;;6243883;28;20058;-75
2023/07/04 05:32:40;;;;;;;4.57;3.72;;;;;;;;;;6240642;28;20050;-76
2023/07/04 05:35:41;;;;;;;5.93;3.78;;;;;;;;;;6244980;28;20045;-75
2023/07/04 05:38:43;;;;;;;4.82;3.95;;;;;;;;;;6241071;28;20056;-76
2023/07/04 05:41:45;;;;;;;5.72;3.75;;;;;;;;;;6243304;28;20173;-75
2023/07/04 05:44:47;;;;;;;5.57;3.25;;;;;;;;;;6243271;28;20067;-75
2023/07/04 05:47:49;;;;;;;3.70;2.92;;;;;;;;;;6240364;28;20056;-75
2023/07/04 05:50:51;;;;;;;3.72;2.67;;;;;;;;;;6241770;28;20049;-75
2023/07/04 05:53:53;;;;;;;5.50;3.00;;;;;;;;;;6240979;28;20056;-77
2023/07/04 05:56:56;;;;;;;3.38;2.45;;;;;;;;;;6239136;28;20061;-75
2023/07/04 05:59:59;;;;;;;4.50;2.60;;;;;;;;;;6241907;28;20060;-74
2023/07/04 06:03:03;;;;;;;5.00;2.53;;;;;;;;;;6242805;28;20887;-76
2023/07/04 06:06:04;;;;;;;3.10;2.35;;;;;;;;;;6242612;28;20049;-73
2023/07/04 06:09:07;;;;;;;5.50;2.30;;;;;;;;;;6240712;28;20122;-72
2023/07/04 06:12:09;;;;;;;7.67;2.70;;;;;;;;;;6240874;28;20116;-74
2023/07/04 06:15:12;;;;;;;6.18;2.40;;;;;;;;;;6240470;28;20459;-73
2023/07/04 06:18:13;;;;;;;3.22;2.60;;;;;;;;;;6241170;28;20072;-73
2023/07/04 06:21:17;;;;;;;4.50;2.38;;;;;;;;;;6242912;28;20089;-72
2023/07/04 06:24:18;;;;;;;5.50;2.63;;;;;;;;;;6241106;28;20045;-74
2023/07/04 06:27:20;;;;;;;3.47;2.40;;;;;;;;;;6238355;28;20222;-73
2023/07/04 06:30:23;;;;;;;4.43;2.28;;;;;;;;;;6239887;28;20051;-73
2023/07/04 06:33:24;;;;;;;3.60;2.85;;;;;;;;;;6241220;28;20068;-73
2023/07/04 06:36:26;;;;;;;5.70;2.30;;;;;;;;;;6241151;28;20075;-73
2023/07/04 06:39:27;;;;;;;6.05;2.33;;;;;;;;;;6240618;28;20092;-73
2023/07/04 06:42:31;;;;;;;6.15;2.53;;;;;;;;;;6240690;28;20209;-73
2023/07/04 06:45:32;;;;;;;;;;;;;;;;;;6240063;28;20054;-73
2023/07/04 06:48:35;;;;;;;3.67;2.50;;;;;;;;;;6243489;28;19980;-73
2023/07/04 06:51:36;;;;;;;3.35;2.35;;;;;;;;;;6242481;28;20116;-73
2023/07/04 06:54:38;;;;;;;2.70;2.10;;;;;;;;;;6239614;28;20053;-72
2023/07/04 06:57:39;;;;;;;6.18;2.20;;;;;;;;;;6239230;28;20058;-73
2023/07/04 07:00:40;;;;;;;3.53;2.20;;;;;;;;;;6242151;28;20056;-73
2023/07/04 07:03:43;;;;;;;6.20;2.60;;;;;;;;;;6241437;28;20050;-74
2023/07/04 07:06:45;;;;;;;7.85;2.25;;;;;;;;;;6241423;28;20337;-74
2023/07/04 07:09:46;;;;;;;5.40;2.30;;;;;;;;;;6241344;28;20072;-73
2023/07/04 07:12:48;;;;;;;3.35;2.17;;;;;;;;;;6242349;28;20061;-73
2023/07/04 07:15:49;;;;;;;3.50;2.42;;;;;;;;;;6245062;28;20053;-72
2023/07/04 07:18:53;;;;;;;4.18;1.98;;;;;;;;;;6247027;28;20048;-73
2023/07/04 07:21:54;;;;;;;3.78;1.92;;;;;;;;;;6244643;28;20046;-73
2023/07/04 07:24:56;;;;;;;3.10;1.75;;;;;;;;;;6247698;28;20056;-73
2023/07/04 07:27:57;;;;;;;6.90;1.70;;;;;;;;;;6247457;28;20065;-73
2023/07/04 07:31:02;;;;;;;4.30;2.25;;;;;;;;;;6246536;28;20141;-74
2023/07/04 07:34:05;;;;;;;5.93;2.30;;;;;;;;;;6244674;28;20259;-72
2023/07/04 07:37:08;;;;;;;3.88;2.05;;;;;;;;;;6243107;28;20057;-73
2023/07/04 07:40:10;;;;;;;3.80;1.73;;;;;;;;;;6245885;28;20050;-73
2023/07/04 07:43:11;;;;;;;3.50;2.20;;;;;;;;;;6243370;28;20058;-73
2023/07/04 07:46:13;;;;;;;5.18;3.08;;;;;;;;;;6243023;28;20054;-73
2023/07/04 07:49:16;;;;;;;7.25;3.20;;;;;;;;;;6245346;28;20054;-75
2023/07/04 07:52:18;;;;;;;6.95;3.40;;;;;;;;;;6242903;28;20049;-73
2023/07/04 07:55:19;;;;;;;9.77;2.92;;;;;;;;;;6240774;28;20265;-74
2023/07/04 07:58:20;;;;;;;5.68;3.72;;;;;;;;;;6243381;28;20048;-73
2023/07/04 08:01:23;;;;;;;4.68;3.22;;;;;;;;;;6245624;28;20072;-73
2023/07/04 08:04:26;;;;;;;8.80;3.13;;;;;;;;;;6244954;28;20104;-73
2023/07/04 08:07:27;;;;;;;5.38;2.83;;;;;;;;;;6243502;28;20353;-74
2023/07/04 08:10:29;;;;;;;4.57;2.88;;;;;;;;;;6244127;28;20049;-73
2023/07/04 08:13:30;;;;;;;5.53;2.90;;;;;;;;;;6243706;28;20056;-73
2023/07/04 08:16:40;;;;;;;6.38;3.00;;;;;;;;;;6244739;28;20054;-74
2023/07/04 08:19:43;;;;;;;4.57;2.28;;;;;;;;;;6246305;28;20309;-74
2023/07/04 08:22:45;;;;;;;5.03;2.75;;;;;;;;;;6241690;28;20325;-73
2023/07/04 08:25:46;;;;;;;4.53;2.92;;;;;;;;;;6242186;28;20276;-73
2023/07/04 08:28:48;;;;;;;3.95;2.83;;;;;;;;;;6247561;28;20053;-73
2023/07/04 08:31:49;;;;;;;3.20;2.58;;;;;;;;;;6242779;28;20052;-73
2023/07/04 08:34:52;;;;;;;9.32;2.60;;;;;;;;;;6242894;28;20045;-75
2023/07/04 08:37:53;;;;;;;3.80;2.70;;;;;;;;;;6242220;28;20060;-73
2023/07/04 08:40:55;;;;;;;4.38;2.90;;;;;;;;;;6240865;28;20064;-73
2023/07/04 08:43:58;;;;;;;4.32;2.17;;;;;;;;;;6241483;28;20060;-73
2023/07/04 08:47:00;;;;;;;3.30;2.67;;;;;;;;;;6241884;28;20141;-73
2023/07/04 08:50:06;;;;;;;3.63;2.03;;;;;;;;;;6242434;28;20057;-74
2023/07/04 08:53:11;;;;;;;5.47;2.40;;;;;;;;;;6243621;28;20057;-73
2023/07/04 08:56:16;;;;;;;4.75;2.47;;;;;;;;;;6244254;28;20104;-73
2023/07/04 08:59:28;;;;;;;4.60;2.60;;;;;;;;;;6242556;28;20053;-73
2023/07/04 09:02:42;;;;;;;2.93;2.23;;;;;;;;;;6242608;28;20065;-73
2023/07/04 09:05:56;;;;;;;6.22;3.00;;;;;;;;;;6242033;28;20049;-75
2023/07/04 09:09:03;;;;;;;4.15;2.72;;;;;;;;;;6242299;28;20057;-74
2023/07/04 09:12:06;;;;;;;5.20;2.45;;;;;;;;;;6242848;28;20049;-75
2023/07/04 09:15:13;;;;;;;2.72;2.28;;;;;;;;;;6242185;28;20053;-72
2023/07/04 09:18:19;;;;;;;3.92;2.17;;;;;;;;;;6245370;28;20088;-74
2023/07/04 09:21:22;;;;;;;4.60;2.33;;;;;;;;;;6240641;28;20199;-74
2023/07/04 09:24:24;;;;;;;3.90;2.40;;;;;;;;;;6245134;28;20041;-73
2023/07/04 09:27:25;;;;;;;2.80;2.25;;;;;;;;;;6244359;28;20061;-73
2023/07/04 09:30:27;;;;;;;3.75;2.30;;;;;;;;;;6244028;28;20056;-73
2023/07/04 09:33:29;;;;;;;5.97;2.33;;;;;;;;;;6243458;28;20072;-73
2023/07/04 09:36:33;;;;;;;4.10;1.98;;;;;;;;;;6240516;28;20310;-73
2023/07/04 09:39:45;;;;;;;4.32;2.47;;;;;;;;;;6244262;28;20049;-73
2023/07/04 09:42:47;;;;;;;4.28;2.20;;;;;;;;;;6243539;28;20072;-73
2023/07/04 09:45:48;;;;;;;2.22;1.75;;;;;;;;;;6241520;28;20057;-73
2023/07/04 09:48:49;;;;;;;2.88;2.00;;;;;;;;;;6243244;28;20289;-73
2023/07/04 09:52:00;;;;;;;2.38;1.83;;;;;;;;;;6239545;28;20245;-73
2023/07/04 09:55:09;;;;;;;3.42;2.03;;;;;;;;;;6241942;28;20053;-74
2023/07/04 09:58:17;;;;;;;4.57;2.15;;;;;;;;;;6240229;28;20057;-74
2023/07/04 10:01:21;;;;;;;5.05;2.42;;;;;;;;;;6236770;28;20084;-74
2023/07/04 10:04:26;;;;;;;4.38;2.08;;;;;;;;;;6238383;28;20372;-74
2023/07/04 10:07:29;;;;;;;2.90;2.30;;;;;;;;;;6240251;28;20064;-75
2023/07/04 10:10:34;;;;;;;3.10;2.78;;;;;;;;;;6242196;28;20308;-75
2023/07/04 10:13:38;;;;;;;3.55;2.30;;;;;;;;;;6239416;28;20072;-73
2023/07/04 10:16:45;;;;;;;3.83;2.50;;;;;;;;;;6244993;28;20133;-74
2023/07/04 10:19:47;;;;;;;3.13;2.20;;;;;;;;;;6241908;28;20075;-73
2023/07/04 10:22:52;;;;;;;3.85;2.47;;;;;;;;;;6241076;28;20053;-73
2023/07/04 10:25:54;;;;;;;3.75;2.08;;;;;;;;;;6242646;28;20131;-73
2023/07/04 10:28:55;;;;;;;;;;;;;;;;;;6245906;28;20057;-73
2023/07/04 10:31:59;;;;;;;3.45;2.17;;;;;;;;;;6239779;28;20104;-74
2023/07/04 10:35:01;;;;;;;3.25;2.65;;;;;;;;;;6239608;28;20097;-73
2023/07/04 10:38:05;;;;;;;3.45;2.28;;;;;;;;;;6240862;28;20050;-73
2023/07/04 10:41:12;;;;;;;4.15;2.30;;;;;;;;;;6240004;28;20049;-73
2023/07/04 10:44:17;;;;;;;2.60;2.17;;;;;;;;;;6243070;28;20065;-73
2023/07/04 10:47:20;;;;;;;3.13;1.90;;;;;;;;;;6241349;28;20052;-74
2023/07/04 10:50:23;;;;;;;4.55;2.47;;;;;;;;;;6242355;28;20333;-73
2023/07/04 10:53:26;;;;;;;4.97;2.00;;;;;;;;;;6245629;28;20053;-75
2023/07/04 10:56:29;;;;;;;2.58;1.90;;;;;;;;;;6243257;28;20054;-74
2023/07/04 10:59:32;;;;;;;2.60;2.38;;;;;;;;;;6244618;28;20061;-74
2023/07/04 11:02:38;;;;;;;3.60;2.20;;;;;;;;;;6249674;28;20230;-73
2023/07/04 11:05:42;;;;;;;2.17;1.98;;;;;;;;;;6245115;28;20045;-73
2023/07/04 11:08:44;;;;;;;3.53;2.30;;;;;;;;;;6246330;28;20060;-76
2023/07/04 11:11:47;;;;;;;2.55;1.92;;;;;;;;;;6248621;28;20237;-75
2023/07/04 11:14:49;;;;;;;5.15;2.65;;;;;;;;;;6246023;28;20099;-75
2023/07/04 11:17:52;;;;;;;3.35;2.47;;;;;;;;;;6236448;28;20242;-75
2023/07/04 11:20:55;;;;;;;5.78;3.72;;;;;;;;;;6259134;28;20147;-75
2023/07/04 11:24:10;;;;;;;7.03;2.33;;;;;;;;;;6247483;28;20048;-76
2023/07/04 11:27:13;;;;;;;3.65;2.17;;;;;;;;;;6246798;28;20046;-77
2023/07/04 11:30:32;;;;;;;3.78;2.22;;;;;;;;;;6245672;28;20265;-76
2023/07/04 11:33:38;;;;;;;36.85;32.05;;;;;;;;;;6245803;28;20345;-77
2023/07/04 11:36:42;;;;;;;18.08;14.90;;;;;;;;;;6241609;28;20100;-76
2023/07/04 11:39:48;;;;;;;5.25;4.72;;;;;;;;;;6248015;28;20057;-77
2023/07/04 11:42:52;;;;;;;6.22;2.60;;;;;;;;;;6244113;28;20049;-75
2023/07/04 11:45:55;;;;;;;3.45;2.28;;;;;;;;;;6245256;28;20087;-75
2023/07/04 11:48:58;;;;;;;2.50;2.30;;;;;;;;;;6242258;28;20061;-75
2023/07/04 11:52:04;;;;;;;3.30;2.17;;;;;;;;;;6242656;28;20219;-75
2023/07/04 11:55:10;;;;;;;4.40;3.00;;;;;;;;;;6246301;28;20273;-76
2023/07/04 11:58:20;;;;;;;3.00;2.30;;;;;;;;;;6247447;28;20059;-75
2023/07/04 12:01:21;;;;;;;2.88;2.65;;;;;;;;;;6247204;28;20045;-75
2023/07/04 12:04:23;;;;;;;3.67;2.38;;;;;;;;;;6242350;28;20053;-75
2023/07/04 12:07:44;;;;;;;4.03;2.47;;;;;;;;;;6245922;28;20053;-76
2023/07/04 12:10:47;;;;;;;3.40;2.47;;;;;;;;;;6244121;28;20040;-76
2023/07/04 12:13:50;;;;;;;3.72;2.60;;;;;;;;;;6242239;28;20125;-76
2023/07/04 12:16:51;;;;;;;3.35;2.60;;;;;;;;;;6243906;28;20052;-76
2023/07/04 12:20:00;;;;;;;3.03;2.47;;;;;;;;;;6243073;28;20054;-76
2023/07/04 12:23:02;;;;;;;2.85;2.40;;;;;;;;;;6243890;28;20065;-76
2023/07/04 12:26:07;;;;;;;8.55;2.40;;;;;;;;;;6240615;28;20049;-76
2023/07/04 12:29:08;;;;;;;3.25;2.42;;;;;;;;;;6244289;28;20045;-76
2023/07/04 12:32:14;;;;;;;5.70;2.65;;;;;;;;;;6244381;28;20046;-76
2023/07/04 12:35:17;;;;;;;4.43;2.55;;;;;;;;;;6244325;28;20089;-76
2023/07/04 12:38:18;;;;;;;4.88;2.20;;;;;;;;;;6241008;28;20057;-77
2023/07/04 12:41:23;;;;;;;3.38;2.50;;;;;;;;;;6243619;28;20258;-76
2023/07/04 12:44:24;;;;;;;3.88;2.55;;;;;;;;;;6241941;28;20045;-76
2023/07/04 12:47:28;;;;;;;3.30;2.30;;;;;;;;;;6244292;28;20439;-76
2023/07/04 12:50:30;;;;;;;3.67;2.45;;;;;;;;;;6243945;28;20049;-75
2023/07/04 12:53:32;;;;;;;4.00;3.03;;;;;;;;;;6241497;28;20060;-75
2023/07/04 12:56:35;;;;;;;4.40;3.72;;;;;;;;;;6244235;28;20068;-75
2023/07/04 12:59:37;;;;;;;11.95;10.75;;;;;;;;;;6241758;28;20052;-75
2023/07/04 13:02:39;;;;;;;241.68;217.27;;;;;;;;;;6242108;28;20062;-76
2023/07/04 13:05:41;;;;;;;25.55;22.85;;;;;;;;;;6237884;28;20054;-76
2023/07/04 13:08:45;;;;;;;5.97;3.25;;;;;;;;;;6244530;28;20061;-75
2023/07/04 13:11:48;;;;;;;4.30;3.20;;;;;;;;;;6242699;28;20056;-76
2023/07/04 13:14:50;;;;;;;5.25;2.90;;;;;;;;;;6242686;28;20049;-75
2023/07/04 13:17:55;;;;;;;4.18;2.80;;;;;;;;;;6240186;28;20058;-76
2023/07/04 13:20:58;;;;;;;3.78;2.75;;;;;;;;;;6240330;28;20338;-75
2023/07/04 13:24:03;;;;;;;6.13;3.15;;;;;;;;;;6242726;28;20050;-74
2023/07/04 13:27:18;;;;;;;4.18;2.63;;;;;;;;;;6243142;28;20237;-75
2023/07/04 13:30:24;;;;;;;3.03;2.72;;;;;;;;;;6242360;28;20249;-76
2023/07/04 13:33:29;;;;;;;4.95;3.22;;;;;;;;;;6246485;28;20237;-76
2023/07/04 13:36:34;;;;;;;4.68;2.95;;;;;;;;;;6242062;28;20053;-75
2023/07/04 13:39:36;;;;;;;4.13;2.90;;;;;;;;;;6241637;28;20348;-76
2023/07/04 13:42:39;;;;;;;3.38;2.80;;;;;;;;;;6244460;28;20057;-76
2023/07/04 13:45:40;;;;;;;4.43;2.65;;;;;;;;;;6243677;28;20100;-75
2023/07/04 13:48:42;;;;;;;4.63;2.63;;;;;;;;;;6244583;28;20060;-80
2023/07/04 13:51:44;;;;;;;;;;;;;;;;;;6239524;28;20064;-76
2023/07/04 13:54:46;;;;;;;4.00;2.50;;;;;;;;;;6243198;28;19917;-76
2023/07/04 13:57:47;;;;;;;;;;;;;;;;;;6242339;28;20111;-77
2023/07/04 14:00:50;;;;;;;3.95;2.63;;;;;;;;;;6243270;28;20091;-76
2023/07/04 14:03:51;;;;;;;6.78;3.10;;;;;;;;;;6242005;28;20341;-76
2023/07/04 14:06:53;;;;;;;4.45;2.65;;;;;;;;;;6242937;28;20269;-77
2023/07/04 14:09:54;;;;;;;5.28;2.70;;;;;;;;;;6244286;28;20253;-77
2023/07/04 14:12:56;;;;;;;4.07;2.33;;;;;;;;;;6242912;28;20342;-78
2023/07/04 14:15:59;;;;;;;6.25;3.92;;;;;;;;;;6240528;28;20061;-77
2023/07/04 14:19:00;;;;;;;3.50;3.15;;;;;;;;;;6243065;28;20048;-77
2023/07/04 14:22:02;;;;;;;4.93;3.35;;;;;;;;;;6241430;28;20261;-78
2023/07/04 14:25:04;;;;;;;5.45;2.67;;;;;;;;;;6248571;28;20060;-76
2023/07/04 14:28:05;;;;;;;5.53;3.25;;;;;;;;;;6244579;28;20053;-77
2023/07/04 14:31:08;;;;;;;6.05;3.60;;;;;;;;;;6245906;28;20053;-77
2023/07/04 14:34:10;;;;;;;5.38;3.05;;;;;;;;;;6246911;28;20264;-76
2023/07/04 14:37:11;;;;;;;4.77;3.33;;;;;;;;;;6245678;28;20064;-77
2023/07/04 14:40:13;;;;;;;4.83;3.40;;;;;;;;;;6248179;28;20286;-77
2023/07/04 14:43:14;;;;;;;16.75;3.85;;;;;;;;;;6244391;28;20081;-77
2023/07/04 14:46:17;;;;;;;6.82;3.67;;;;;;;;;;6245429;28;20061;-76
2023/07/04 14:49:18;;;;;;;4.70;3.42;;;;;;;;;;6245323;28;20469;-77
2023/07/04 14:52:20;;;;;;;9.50;3.75;;;;;;;;;;6247171;28;20326;-77
2023/07/04 14:55:22;;;;;;;6.22;3.60;;;;;;;;;;6247556;28;20152;-77
2023/07/04 14:58:24;;;;;;;5.07;3.43;;;;;;;;;;6244611;28;20100;-77
2023/07/04 15:01:27;;;;;;;6.28;3.67;;;;;;;;;;6242350;28;20843;-76
2023/07/04 15:04:28;;;;;;;5.25;3.20;;;;;;;;;;6245830;28;20064;-75
2023/07/04 15:07:30;;;;;;;3.97;3.20;;;;;;;;;;6244480;28;20071;-75
2023/07/04 15:10:31;;;;;;;7.28;3.97;;;;;;;;;;6245348;28;20065;-75
2023/07/04 15:13:33;;;;;;;29.05;22.40;;;;;;;;;;6242629;28;20060;-74
2023/07/04 15:16:36;;;;;;;10.73;7.67;;;;;;;;;;6242755;28;20224;-75
2023/07/04 15:19:37;;;;;;;8.63;4.88;;;;;;;;;;6246018;28;20372;-75
2023/07/04 15:22:40;;;;;;;5.10;3.45;;;;;;;;;;6242869;28;20129;-76
2023/07/04 15:25:43;;;;;;;5.70;3.30;;;;;;;;;;6244185;28;20053;-75
2023/07/04 15:28:47;;;;;;;7.53;3.45;;;;;;;;;;6247365;28;20057;-76
2023/07/04 15:31:52;;;;;;;7.07;3.78;;;;;;;;;;6241785;28;20060;-75
2023/07/04 15:34:53;;;;;;;7.20;3.60;;;;;;;;;;6246933;28;20061;-76
2023/07/04 15:37:55;;;;;;;8.32;3.40;;;;;;;;;;6243206;28;20057;-76
2023/07/04 15:40:57;;;;;;;8.23;4.35;;;;;;;;;;6243260;28;20104;-75
2023/07/04 15:44:03;;;;;;;5.40;3.50;;;;;;;;;;6242749;28;20053;-76
2023/07/04 15:47:06;;;;;;;8.60;3.97;;;;;;;;;;6243493;28;20110;-76
2023/07/04 15:50:09;;;;;;;6.95;3.70;;;;;;;;;;6244214;28;20058;-76
2023/07/04 15:53:10;;;;;;;4.88;3.55;;;;;;;;;;6243254;28;20054;-76
2023/07/04 15:56:13;;;;;;;6.47;4.05;;;;;;;;;;6246536;28;20107;-75
2023/07/04 15:59:15;;;;;;;5.05;3.55;;;;;;;;;;6242455;28;20408;-76
2023/07/04 16:02:17;;;;;;;4.40;3.63;;;;;;;;;;6243829;28;20084;-76
2023/07/04 16:05:19;;;;;;;6.55;3.95;;;;;;;;;;6241295;28;20303;-76
2023/07/04 16:08:21;;;;;;;7.45;3.60;;;;;;;;;;6245332;28;20046;-77
2023/07/04 16:11:23;;;;;;;5.50;4.20;;;;;;;;;;6243788;28;20344;-76
2023/07/04 16:14:24;;;;;;;8.82;3.80;;;;;;;;;;6240826;28;20213;-76
2023/07/04 16:17:27;;;;;;;8.75;4.38;;;;;;;;;;6243200;28;20049;-75
2023/07/04 16:20:29;;;;;;;5.50;3.20;;;;;;;;;;6240538;28;20050;-76
2023/07/04 16:23:31;;;;;;;6.38;3.97;;;;;;;;;;6243339;28;20237;-76
2023/07/04 16:26:32;;;;;;;6.30;3.67;;;;;;;;;;6242744;28;20053;-76
2023/07/04 16:29:34;;;;;;;4.10;3.70;;;;;;;;;;6245488;28;20337;-76
2023/07/04 16:32:37;;;;;;;4.88;3.67;;;;;;;;;;6244462;28;20345;-76
2023/07/04 16:35:40;;;;;;;4.53;3.58;;;;;;;;;;6238837;28;20053;-76
2023/07/04 16:38:42;;;;;;;8.68;4.03;;;;;;;;;;6243587;28;20045;-76
2023/07/04 16:41:43;;;;;;;6.65;3.70;;;;;;;;;;6239464;28;20053;-76
2023/07/04 16:44:45;;;;;;;6.85;3.72;;;;;;;;;;6241386;28;20052;-76
2023/07/04 16:47:48;;;;;;;5.50;3.78;;;;;;;;;;6243916;28;20322;-76
2023/07/04 16:50:49;;;;;;;;;;;;;;;;;;6244111;28;20075;-76
2023/07/04 16:53:52;;;;;;;5.35;3.35;;;;;;;;;;6242125;28;20231;-75
2023/07/04 16:56:53;;;;;;;5.20;3.60;;;;;;;;;;6243589;28;20053;-75
2023/07/04 16:59:55;;;;;;;6.35;4.28;;;;;;;;;;6243781;28;20050;-74
2023/07/04 17:02:58;;;;;;;4.63;3.90;;;;;;;;;;6240808;28;20072;-74
2023/07/04 17:05:59;;;;;;;;;;;;;;;;;;6242332;28;20053;-76
2023/07/04 17:09:01;;;;;;;8.00;3.95;;;;;;;;;;6241826;28;20161;-74
2023/07/04 17:12:02;;;;;;;5.15;3.78;;;;;;;;;;6242223;28;20059;-76
2023/07/04 17:15:05;;;;;;;4.50;3.80;;;;;;;;;;6242416;28;20116;-74
2023/07/04 17:18:07;;;;;;;9.57;4.20;;;;;;;;;;6240006;28;20063;-75
2023/07/04 17:21:09;;;;;;;6.82;4.05;;;;;;;;;;6243459;28;20060;-75
2023/07/04 17:24:11;;;;;;;6.25;4.05;;;;;;;;;;6242071;28;20245;-75
2023/07/04 17:27:12;;;;;;;9.23;3.92;;;;;;;;;;6242396;28;20069;-75
2023/07/04 17:30:14;;;;;;;8.50;4.13;;;;;;;;;;6243143;28;20057;-75
2023/07/04 17:33:17;;;;;;;10.82;4.40;;;;;;;;;;6244226;28;20064;-75
2023/07/04 17:36:18;;;;;;;6.50;4.00;;;;;;;;;;6240178;28;20053;-74
2023/07/04 17:39:20;;;;;;;7.30;4.20;;;;;;;;;;6242685;28;20236;-76
2023/07/04 17:42:21;;;;;;;6.05;4.50;;;;;;;;;;6241716;28;20238;-75
2023/07/04 17:45:23;;;;;;;5.68;3.80;;;;;;;;;;6244449;28;20045;-75
2023/07/04 17:48:27;;;;;;;14.85;10.90;;;;;;;;;;6241759;28;20053;-74
2023/07/04 17:51:28;;;;;;;10.27;8.10;;;;;;;;;;6241070;28;20049;-74
2023/07/04 17:54:30;;;;;;;19.25;11.05;;;;;;;;;;6239808;28;20049;-75
2023/07/04 17:57:31;;;;;;;6.18;4.22;;;;;;;;;;6241935;28;20050;-75
2023/07/04 18:00:33;;;;;;;9.88;4.10;;;;;;;;;;6244225;28;20059;-76
2023/07/04 18:03:37;;;;;;;7.03;5.45;;;;;;;;;;6240378;28;20054;-75
2023/07/04 18:06:41;;;;;;;6.70;4.03;;;;;;;;;;6242426;28;20488;-76
2023/07/04 18:09:45;;;;;;;8.18;4.35;;;;;;;;;;6243405;28;20057;-74
2023/07/04 18:12:46;;;;;;;7.80;4.43;;;;;;;;;;6244107;28;20041;-75